sensor_id;sensor_type;location;lat;lon;timestamp;P1;durP1;ratioP1;P2;durP2;ratioP2
56321;SDS011;42227;6.376;-10.782;2022-10-31T00:01:32;23.20;;;7.28;;
56321;SDS011;42227;6.376;-10.782;2022-10-31T00:04:02;16.65;;;7.15;;
56321;SDS011;42227;6.376;-10.782;2022-10-31T00:06:32;20.23;;;8.43;;
56321;SDS011;42227;6.376;-10.782;2022-10-31T00:09:01;11.75;;;7.43;;
56321;SDS011;42227;6.376;-10.782;2022-10-31T00:11:31;16.20;;;6.78;;
56321;SDS011;42227;6.376;-10.782;2022-10-31T00:13:59;12.10;;;7.75;;
56321;SDS011;42227;6.376;-10.782;2022-10-31T00:16:28;16.45;;;8.02;;
56321;SDS011;42227;6.376;-10.782;2022-10-31T00:19:00;16.17;;;7.53;;
56321;SDS011;42227;6.376;-10.782;2022-10-31T00:21:30;16.33;;;9.02;;
56321;SDS011;42227;6.376;-10.782;2022-10-31T00:23:59;21.13;;;8.55;;
56321;SDS011;42227;6.376;-10.782;2022-10-31T00:26:29;19.45;;;7.93;;
56321;SDS011;42227;6.376;-10.782;2022-10-31T00:28:58;10.77;;;6.65;;
56321;SDS011;42227;6.376;-10.782;2022-10-31T00:31:27;26.90;;;10.13;;
56321;SDS011;42227;6.376;-10.782;2022-10-31T00:33:56;27.35;;;13.60;;
56321;SDS011;42227;6.376;-10.782;2022-10-31T00:36:25;23.25;;;11.93;;
56321;SDS011;42227;6.376;-10.782;2022-10-31T00:38:54;20.00;;;9.65;;
56321;SDS011;42227;6.376;-10.782;2022-10-31T00:41:23;14.90;;;5.70;;
56321;SDS011;42227;6.376;-10.782;2022-10-31T00:43:51;15.30;;;6.95;;
56321;SDS011;42227;6.376;-10.782;2022-10-31T00:46:19;12.65;;;7.50;;
56321;SDS011;42227;6.376;-10.782;2022-10-31T00:48:49;13.32;;;6.85;;
56321;SDS011;42227;6.376;-10.782;2022-10-31T00:51:18;15.77;;;8.57;;
56321;SDS011;42227;6.376;-10.782;2022-10-31T00:53:46;17.77;;;6.97;;
56321;SDS011;42227;6.376;-10.782;2022-10-31T00:56:14;9.70;;;6.55;;
56321;SDS011;42227;6.376;-10.782;2022-10-31T00:58:42;12.05;;;5.45;;
56321;SDS011;42227;6.376;-10.782;2022-10-31T01:01:10;12.60;;;7.03;;
56321;SDS011;42227;6.376;-10.782;2022-10-31T01:03:39;19.20;;;6.38;;
56321;SDS011;42227;6.376;-10.782;2022-10-31T01:06:11;14.43;;;5.97;;
56321;SDS011;42227;6.376;-10.782;2022-10-31T01:08:40;8.88;;;5.22;;
56321;SDS011;42227;6.376;-10.782;2022-10-31T01:11:15;12.50;;;6.97;;
56321;SDS011;42227;6.376;-10.782;2022-10-31T01:13:46;14.02;;;7.03;;
56321;SDS011;42227;6.376;-10.782;2022-10-31T01:16:15;11.82;;;6.18;;
56321;SDS011;42227;6.376;-10.782;2022-10-31T01:18:46;10.43;;;6.05;;
56321;SDS011;42227;6.376;-10.782;2022-10-31T01:21:15;13.00;;;6.68;;
56321;SDS011;42227;6.376;-10.782;2022-10-31T01:23:54;18.35;;;6.47;;
56321;SDS011;42227;6.376;-10.782;2022-10-31T01:26:24;13.73;;;6.95;;
56321;SDS011;42227;6.376;-10.782;2022-10-31T01:28:59;21.25;;;7.25;;
56321;SDS011;42227;6.376;-10.782;2022-10-31T01:31:30;21.33;;;7.18;;
56321;SDS011;42227;6.376;-10.782;2022-10-31T01:34:01;15.73;;;6.88;;
56321;SDS011;42227;6.376;-10.782;2022-10-31T01:36:34;14.43;;;6.85;;
56321;SDS011;42227;6.376;-10.782;2022-10-31T01:39:05;12.82;;;7.00;;
56321;SDS011;42227;6.376;-10.782;2022-10-31T01:41:36;25.15;;;8.07;;
56321;SDS011;42227;6.376;-10.782;2022-10-31T01:46:49;15.65;;;8.07;;
56321;SDS011;42227;6.376;-10.782;2022-10-31T01:55:03;12.27;;;9.40;;
56321;SDS011;42227;6.376;-10.782;2022-10-31T01:57:58;22.95;;;13.00;;
56321;SDS011;42227;6.376;-10.782;2022-10-31T02:00:32;22.73;;;12.15;;
56321;SDS011;42227;6.376;-10.782;2022-10-31T02:03:01;18.30;;;11.85;;
56321;SDS011;42227;6.376;-10.782;2022-10-31T02:05:29;22.02;;;11.80;;
56321;SDS011;42227;6.376;-10.782;2022-10-31T02:07:59;24.33;;;12.65;;
56321;SDS011;42227;6.376;-10.782;2022-10-31T02:10:48;24.73;;;13.73;;
56321;SDS011;42227;6.376;-10.782;2022-10-31T02:13:17;26.88;;;15.13;;
56321;SDS011;42227;6.376;-10.782;2022-10-31T02:15:52;21.05;;;14.30;;
56321;SDS011;42227;6.376;-10.782;2022-10-31T02:18:22;33.85;;;13.90;;
56321;SDS011;42227;6.376;-10.782;2022-10-31T02:21:15;29.25;;;13.40;;
56321;SDS011;42227;6.376;-10.782;2022-10-31T02:26:46;27.55;;;14.52;;
56321;SDS011;42227;6.376;-10.782;2022-10-31T02:37:25;25.23;;;15.30;;
56321;SDS011;42227;6.376;-10.782;2022-10-31T02:43:26;36.47;;;14.73;;
56321;SDS011;42227;6.376;-10.782;2022-10-31T02:46:23;20.58;;;14.00;;
56321;SDS011;42227;6.376;-10.782;2022-10-31T02:51:51;24.48;;;15.15;;
56321;SDS011;42227;6.376;-10.782;2022-10-31T02:54:21;25.58;;;14.93;;
56321;SDS011;42227;6.376;-10.782;2022-10-31T02:56:54;37.17;;;15.15;;
56321;SDS011;42227;6.376;-10.782;2022-10-31T02:59:30;22.88;;;15.77;;
56321;SDS011;42227;6.376;-10.782;2022-10-31T03:10:42;23.48;;;14.50;;
56321;SDS011;42227;6.376;-10.782;2022-10-31T03:13:48;18.63;;;14.23;;
56321;SDS011;42227;6.376;-10.782;2022-10-31T03:16:23;25.65;;;15.52;;
56321;SDS011;42227;6.376;-10.782;2022-10-31T03:18:56;24.13;;;14.18;;
56321;SDS011;42227;6.376;-10.782;2022-10-31T03:24:02;31.35;;;16.45;;
56321;SDS011;42227;6.376;-10.782;2022-10-31T03:26:38;28.98;;;16.55;;
56321;SDS011;42227;6.376;-10.782;2022-10-31T03:29:15;31.98;;;16.67;;
56321;SDS011;42227;6.376;-10.782;2022-10-31T03:34:24;18.52;;;15.25;;
56321;SDS011;42227;6.376;-10.782;2022-10-31T03:36:53;24.27;;;15.57;;
56321;SDS011;42227;6.376;-10.782;2022-10-31T03:39:24;23.92;;;16.73;;
56321;SDS011;42227;6.376;-10.782;2022-10-31T03:47:33;32.53;;;17.23;;
56321;SDS011;42227;6.376;-10.782;2022-10-31T03:50:05;33.08;;;19.05;;
56321;SDS011;42227;6.376;-10.782;2022-10-31T03:55:40;25.87;;;16.97;;
56321;SDS011;42227;6.376;-10.782;2022-10-31T03:58:22;38.78;;;16.17;;
56321;SDS011;42227;6.376;-10.782;2022-10-31T04:00:55;28.40;;;16.38;;
56321;SDS011;42227;6.376;-10.782;2022-10-31T04:03:25;25.20;;;16.10;;
56321;SDS011;42227;6.376;-10.782;2022-10-31T04:06:00;25.15;;;15.75;;
56321;SDS011;42227;6.376;-10.782;2022-10-31T04:08:33;22.95;;;12.38;;
56321;SDS011;42227;6.376;-10.782;2022-10-31T04:11:12;20.10;;;14.73;;
56321;SDS011;42227;6.376;-10.782;2022-10-31T04:13:47;34.53;;;17.85;;
56321;SDS011;42227;6.376;-10.782;2022-10-31T04:16:21;30.02;;;19.65;;
56321;SDS011;42227;6.376;-10.782;2022-10-31T04:18:51;28.80;;;17.33;;
56321;SDS011;42227;6.376;-10.782;2022-10-31T04:21:19;27.38;;;16.92;;
56321;SDS011;42227;6.376;-10.782;2022-10-31T04:23:54;21.35;;;14.75;;
56321;SDS011;42227;6.376;-10.782;2022-10-31T04:26:25;28.05;;;16.95;;
56321;SDS011;42227;6.376;-10.782;2022-10-31T04:28:53;24.52;;;17.42;;
56321;SDS011;42227;6.376;-10.782;2022-10-31T04:31:21;33.95;;;18.10;;
56321;SDS011;42227;6.376;-10.782;2022-10-31T04:33:49;28.10;;;16.58;;
56321;SDS011;42227;6.376;-10.782;2022-10-31T04:36:17;39.45;;;17.58;;
56321;SDS011;42227;6.376;-10.782;2022-10-31T04:38:46;23.65;;;15.00;;
56321;SDS011;42227;6.376;-10.782;2022-10-31T04:41:29;28.25;;;15.40;;
56321;SDS011;42227;6.376;-10.782;2022-10-31T04:44:00;32.10;;;15.53;;
56321;SDS011;42227;6.376;-10.782;2022-10-31T04:46:29;25.55;;;15.27;;
56321;SDS011;42227;6.376;-10.782;2022-10-31T04:48:58;26.20;;;15.68;;
56321;SDS011;42227;6.376;-10.782;2022-10-31T04:51:26;25.20;;;14.73;;
56321;SDS011;42227;6.376;-10.782;2022-10-31T04:53:55;22.23;;;16.05;;
56321;SDS011;42227;6.376;-10.782;2022-10-31T04:56:23;26.48;;;16.27;;
56321;SDS011;42227;6.376;-10.782;2022-10-31T04:58:56;30.63;;;17.48;;
56321;SDS011;42227;6.376;-10.782;2022-10-31T05:01:27;27.35;;;15.60;;
56321;SDS011;42227;6.376;-10.782;2022-10-31T05:03:58;19.55;;;15.43;;
56321;SDS011;42227;6.376;-10.782;2022-10-31T05:06:27;19.90;;;15.13;;
56321;SDS011;42227;6.376;-10.782;2022-10-31T05:08:57;18.45;;;15.63;;
56321;SDS011;42227;6.376;-10.782;2022-10-31T05:11:25;29.83;;;18.52;;
56321;SDS011;42227;6.376;-10.782;2022-10-31T05:13:59;28.20;;;19.17;;
56321;SDS011;42227;6.376;-10.782;2022-10-31T05:16:46;26.95;;;18.60;;
56321;SDS011;42227;6.376;-10.782;2022-10-31T05:19:34;29.20;;;17.38;;
56321;SDS011;42227;6.376;-10.782;2022-10-31T05:22:41;27.52;;;15.70;;
56321;SDS011;42227;6.376;-10.782;2022-10-31T05:25:14;33.80;;;18.77;;
56321;SDS011;42227;6.376;-10.782;2022-10-31T05:27:44;27.13;;;16.05;;
56321;SDS011;42227;6.376;-10.782;2022-10-31T05:30:15;32.00;;;16.42;;
56321;SDS011;42227;6.376;-10.782;2022-10-31T05:32:46;26.58;;;17.15;;
56321;SDS011;42227;6.376;-10.782;2022-10-31T05:35:38;29.38;;;17.55;;
56321;SDS011;42227;6.376;-10.782;2022-10-31T05:38:22;24.23;;;16.98;;
56321;SDS011;42227;6.376;-10.782;2022-10-31T05:40:54;22.77;;;17.08;;
56321;SDS011;42227;6.376;-10.782;2022-10-31T05:43:23;20.40;;;17.52;;
56321;SDS011;42227;6.376;-10.782;2022-10-31T05:45:52;37.10;;;19.35;;
56321;SDS011;42227;6.376;-10.782;2022-10-31T05:48:40;40.75;;;18.55;;
56321;SDS011;42227;6.376;-10.782;2022-10-31T05:51:34;34.00;;;18.48;;
56321;SDS011;42227;6.376;-10.782;2022-10-31T05:54:03;35.17;;;18.70;;
56321;SDS011;42227;6.376;-10.782;2022-10-31T05:56:31;35.85;;;17.92;;
56321;SDS011;42227;6.376;-10.782;2022-10-31T05:58:59;28.27;;;17.70;;
56321;SDS011;42227;6.376;-10.782;2022-10-31T06:01:28;34.47;;;17.65;;
56321;SDS011;42227;6.376;-10.782;2022-10-31T06:04:03;27.83;;;19.23;;
56321;SDS011;42227;6.376;-10.782;2022-10-31T06:09:28;42.75;;;18.50;;
56321;SDS011;42227;6.376;-10.782;2022-10-31T06:11:56;28.80;;;18.58;;
56321;SDS011;42227;6.376;-10.782;2022-10-31T06:14:24;30.05;;;19.83;;
56321;SDS011;42227;6.376;-10.782;2022-10-31T06:16:55;37.05;;;20.00;;
56321;SDS011;42227;6.376;-10.782;2022-10-31T06:19:52;38.15;;;19.45;;
56321;SDS011;42227;6.376;-10.782;2022-10-31T06:22:24;34.13;;;16.08;;
56321;SDS011;42227;6.376;-10.782;2022-10-31T06:24:53;32.45;;;16.88;;
56321;SDS011;42227;6.376;-10.782;2022-10-31T06:27:34;23.27;;;14.93;;
56321;SDS011;42227;6.376;-10.782;2022-10-31T06:30:10;22.60;;;16.55;;
56321;SDS011;42227;6.376;-10.782;2022-10-31T06:32:39;23.70;;;16.15;;
56321;SDS011;42227;6.376;-10.782;2022-10-31T06:35:08;19.25;;;15.88;;
56321;SDS011;42227;6.376;-10.782;2022-10-31T06:37:38;26.45;;;17.70;;
56321;SDS011;42227;6.376;-10.782;2022-10-31T06:40:27;28.90;;;19.80;;
56321;SDS011;42227;6.376;-10.782;2022-10-31T06:43:18;28.23;;;18.08;;
56321;SDS011;42227;6.376;-10.782;2022-10-31T06:45:49;41.85;;;17.95;;
56321;SDS011;42227;6.376;-10.782;2022-10-31T06:48:19;31.13;;;17.20;;
56321;SDS011;42227;6.376;-10.782;2022-10-31T06:51:08;29.67;;;16.00;;
56321;SDS011;42227;6.376;-10.782;2022-10-31T06:53:37;29.85;;;16.83;;
56321;SDS011;42227;6.376;-10.782;2022-10-31T06:56:07;25.60;;;17.00;;
56321;SDS011;42227;6.376;-10.782;2022-10-31T06:58:41;31.35;;;15.15;;
56321;SDS011;42227;6.376;-10.782;2022-10-31T07:01:10;39.00;;;17.05;;
56321;SDS011;42227;6.376;-10.782;2022-10-31T07:03:39;29.85;;;17.42;;
56321;SDS011;42227;6.376;-10.782;2022-10-31T07:06:07;34.75;;;17.30;;
56321;SDS011;42227;6.376;-10.782;2022-10-31T07:08:37;23.83;;;15.10;;
56321;SDS011;42227;6.376;-10.782;2022-10-31T07:11:06;18.50;;;15.55;;
56321;SDS011;42227;6.376;-10.782;2022-10-31T07:13:34;21.98;;;15.40;;
56321;SDS011;42227;6.376;-10.782;2022-10-31T07:16:06;25.98;;;14.15;;
56321;SDS011;42227;6.376;-10.782;2022-10-31T07:18:35;18.55;;;13.90;;
56321;SDS011;42227;6.376;-10.782;2022-10-31T07:21:04;24.75;;;14.77;;
56321;SDS011;42227;6.376;-10.782;2022-10-31T07:23:33;19.42;;;13.40;;
56321;SDS011;42227;6.376;-10.782;2022-10-31T07:26:19;18.73;;;12.93;;
56321;SDS011;42227;6.376;-10.782;2022-10-31T07:28:47;19.42;;;11.50;;
56321;SDS011;42227;6.376;-10.782;2022-10-31T07:31:20;16.55;;;10.88;;
56321;SDS011;42227;6.376;-10.782;2022-10-31T07:33:50;19.00;;;12.48;;
56321;SDS011;42227;6.376;-10.782;2022-10-31T07:36:44;17.35;;;10.60;;
56321;SDS011;42227;6.376;-10.782;2022-10-31T07:39:12;16.10;;;10.30;;
56321;SDS011;42227;6.376;-10.782;2022-10-31T07:41:40;20.40;;;9.80;;
56321;SDS011;42227;6.376;-10.782;2022-10-31T07:44:09;16.80;;;10.65;;
56321;SDS011;42227;6.376;-10.782;2022-10-31T07:46:55;15.18;;;8.70;;
56321;SDS011;42227;6.376;-10.782;2022-10-31T07:49:41;17.80;;;9.40;;
56321;SDS011;42227;6.376;-10.782;2022-10-31T07:52:28;17.45;;;8.50;;
56321;SDS011;42227;6.376;-10.782;2022-10-31T07:57:08;15.15;;;9.10;;
56321;SDS011;42227;6.376;-10.782;2022-10-31T07:59:37;11.65;;;8.32;;
56321;SDS011;42227;6.376;-10.782;2022-10-31T08:02:07;16.30;;;9.02;;
56321;SDS011;42227;6.376;-10.782;2022-10-31T08:04:59;10.98;;;7.82;;
56321;SDS011;42227;6.376;-10.782;2022-10-31T08:07:45;14.70;;;8.52;;
56321;SDS011;42227;6.376;-10.782;2022-10-31T08:10:19;14.52;;;9.25;;
56321;SDS011;42227;6.376;-10.782;2022-10-31T08:12:54;14.63;;;9.00;;
56321;SDS011;42227;6.376;-10.782;2022-10-31T08:15:23;14.00;;;8.65;;
56321;SDS011;42227;6.376;-10.782;2022-10-31T08:17:52;13.57;;;8.43;;
56321;SDS011;42227;6.376;-10.782;2022-10-31T08:20:21;13.73;;;8.15;;
56321;SDS011;42227;6.376;-10.782;2022-10-31T08:23:01;12.38;;;8.65;;
56321;SDS011;42227;6.376;-10.782;2022-10-31T08:25:34;20.75;;;7.57;;
56321;SDS011;42227;6.376;-10.782;2022-10-31T08:30:35;19.13;;;8.27;;
56321;SDS011;42227;6.376;-10.782;2022-10-31T08:33:22;14.68;;;7.63;;
56321;SDS011;42227;6.376;-10.782;2022-10-31T08:36:09;14.07;;;7.38;;
56321;SDS011;42227;6.376;-10.782;2022-10-31T08:38:59;11.85;;;8.05;;
56321;SDS011;42227;6.376;-10.782;2022-10-31T08:41:29;14.15;;;7.85;;
56321;SDS011;42227;6.376;-10.782;2022-10-31T08:43:59;16.00;;;6.87;;
56321;SDS011;42227;6.376;-10.782;2022-10-31T08:46:27;10.38;;;7.03;;
56321;SDS011;42227;6.376;-10.782;2022-10-31T08:48:56;16.95;;;7.10;;
56321;SDS011;42227;6.376;-10.782;2022-10-31T08:51:24;10.80;;;8.07;;
56321;SDS011;42227;6.376;-10.782;2022-10-31T08:53:54;11.70;;;7.25;;
56321;SDS011;42227;6.376;-10.782;2022-10-31T08:56:34;21.65;;;9.38;;
56321;SDS011;42227;6.376;-10.782;2022-10-31T08:59:11;13.43;;;7.13;;
56321;SDS011;42227;6.376;-10.782;2022-10-31T09:02:02;9.48;;;7.63;;
56321;SDS011;42227;6.376;-10.782;2022-10-31T09:04:32;14.88;;;8.65;;
56321;SDS011;42227;6.376;-10.782;2022-10-31T09:07:03;12.85;;;7.70;;
56321;SDS011;42227;6.376;-10.782;2022-10-31T09:09:47;15.02;;;8.65;;
56321;SDS011;42227;6.376;-10.782;2022-10-31T09:12:17;20.85;;;8.63;;
56321;SDS011;42227;6.376;-10.782;2022-10-31T09:15:04;19.52;;;8.45;;
56321;SDS011;42227;6.376;-10.782;2022-10-31T09:17:55;13.00;;;6.38;;
56321;SDS011;42227;6.376;-10.782;2022-10-31T09:20:30;18.83;;;8.23;;
56321;SDS011;42227;6.376;-10.782;2022-10-31T09:23:03;25.90;;;6.85;;
56321;SDS011;42227;6.376;-10.782;2022-10-31T09:25:36;11.02;;;6.93;;
56321;SDS011;42227;6.376;-10.782;2022-10-31T09:28:23;18.58;;;7.70;;
56321;SDS011;42227;6.376;-10.782;2022-10-31T09:30:54;17.80;;;7.88;;
56321;SDS011;42227;6.376;-10.782;2022-10-31T09:33:42;18.70;;;7.75;;
56321;SDS011;42227;6.376;-10.782;2022-10-31T09:36:43;15.45;;;8.20;;
56321;SDS011;42227;6.376;-10.782;2022-10-31T09:39:18;19.67;;;8.82;;
56321;SDS011;42227;6.376;-10.782;2022-10-31T09:56:18;15.80;;;8.32;;
56321;SDS011;42227;6.376;-10.782;2022-10-31T09:58:56;12.27;;;6.35;;
56321;SDS011;42227;6.376;-10.782;2022-10-31T10:22:29;23.95;;;9.13;;
56321;SDS011;42227;6.376;-10.782;2022-10-31T10:30:46;12.63;;;6.78;;
56321;SDS011;42227;6.376;-10.782;2022-10-31T10:33:22;17.45;;;7.70;;
56321;SDS011;42227;6.376;-10.782;2022-10-31T10:35:55;18.67;;;8.32;;
56321;SDS011;42227;6.376;-10.782;2022-10-31T10:41:07;31.70;;;9.77;;
56321;SDS011;42227;6.376;-10.782;2022-10-31T10:43:42;17.05;;;8.15;;
56321;SDS011;42227;6.376;-10.782;2022-10-31T10:48:43;21.88;;;8.45;;
56321;SDS011;42227;6.376;-10.782;2022-10-31T11:00:34;12.60;;;7.88;;
56321;SDS011;42227;6.376;-10.782;2022-10-31T11:03:03;16.58;;;7.28;;
56321;SDS011;42227;6.376;-10.782;2022-10-31T11:05:35;23.35;;;8.30;;
56321;SDS011;42227;6.376;-10.782;2022-10-31T11:08:27;11.27;;;6.63;;
56321;SDS011;42227;6.376;-10.782;2022-10-31T11:10:59;12.70;;;6.95;;
56321;SDS011;42227;6.376;-10.782;2022-10-31T11:16:38;26.75;;;9.27;;
56321;SDS011;42227;6.376;-10.782;2022-10-31T11:19:15;18.38;;;9.23;;
56321;SDS011;42227;6.376;-10.782;2022-10-31T11:21:44;21.38;;;9.20;;
56321;SDS011;42227;6.376;-10.782;2022-10-31T11:24:23;20.52;;;9.20;;
56321;SDS011;42227;6.376;-10.782;2022-10-31T11:27:02;22.08;;;7.18;;
56321;SDS011;42227;6.376;-10.782;2022-10-31T11:29:39;12.10;;;7.55;;
56321;SDS011;42227;6.376;-10.782;2022-10-31T11:32:15;12.40;;;8.57;;
56321;SDS011;42227;6.376;-10.782;2022-10-31T11:34:53;27.58;;;9.20;;
56321;SDS011;42227;6.376;-10.782;2022-10-31T11:37:44;30.63;;;9.65;;
56321;SDS011;42227;6.376;-10.782;2022-10-31T11:40:18;22.10;;;9.00;;
56321;SDS011;42227;6.376;-10.782;2022-10-31T11:42:48;10.60;;;6.82;;
56321;SDS011;42227;6.376;-10.782;2022-10-31T11:48:17;18.48;;;7.13;;
56321;SDS011;42227;6.376;-10.782;2022-10-31T11:50:50;20.02;;;8.70;;
56321;SDS011;42227;6.376;-10.782;2022-10-31T11:53:27;25.23;;;7.75;;
56321;SDS011;42227;6.376;-10.782;2022-10-31T11:56:16;14.30;;;8.05;;
56321;SDS011;42227;6.376;-10.782;2022-10-31T11:58:54;20.90;;;8.90;;
56321;SDS011;42227;6.376;-10.782;2022-10-31T12:01:30;18.05;;;6.97;;
56321;SDS011;42227;6.376;-10.782;2022-10-31T12:09:23;19.83;;;9.10;;
56321;SDS011;42227;6.376;-10.782;2022-10-31T12:12:10;21.88;;;8.80;;
56321;SDS011;42227;6.376;-10.782;2022-10-31T12:15:03;16.92;;;8.63;;
56321;SDS011;42227;6.376;-10.782;2022-10-31T12:26:48;20.23;;;7.45;;
56321;SDS011;42227;6.376;-10.782;2022-10-31T12:29:35;23.55;;;8.77;;
56321;SDS011;42227;6.376;-10.782;2022-10-31T12:32:26;17.92;;;8.82;;
56321;SDS011;42227;6.376;-10.782;2022-10-31T12:43:06;16.95;;;8.23;;
56321;SDS011;42227;6.376;-10.782;2022-10-31T12:45:56;14.52;;;8.95;;
56321;SDS011;42227;6.376;-10.782;2022-10-31T12:51:06;18.80;;;7.53;;
56321;SDS011;42227;6.376;-10.782;2022-10-31T12:56:38;13.65;;;7.88;;
56321;SDS011;42227;6.376;-10.782;2022-10-31T12:59:27;21.17;;;8.52;;
56321;SDS011;42227;6.376;-10.782;2022-10-31T13:02:19;20.55;;;7.75;;
56321;SDS011;42227;6.376;-10.782;2022-10-31T13:05:29;12.98;;;8.48;;
56321;SDS011;42227;6.376;-10.782;2022-10-31T13:08:13;23.23;;;8.50;;
56321;SDS011;42227;6.376;-10.782;2022-10-31T13:11:11;18.50;;;8.15;;
56321;SDS011;42227;6.376;-10.782;2022-10-31T13:13:53;14.90;;;6.22;;
56321;SDS011;42227;6.376;-10.782;2022-10-31T13:16:26;11.23;;;7.00;;
56321;SDS011;42227;6.376;-10.782;2022-10-31T13:19:14;12.77;;;6.18;;
56321;SDS011;42227;6.376;-10.782;2022-10-31T13:22:00;9.68;;;5.45;;
56321;SDS011;42227;6.376;-10.782;2022-10-31T13:30:42;13.32;;;6.80;;
56321;SDS011;42227;6.376;-10.782;2022-10-31T13:33:15;8.40;;;5.38;;
56321;SDS011;42227;6.376;-10.782;2022-10-31T13:38:53;28.38;;;8.20;;
56321;SDS011;42227;6.376;-10.782;2022-10-31T13:44:20;19.63;;;9.20;;
56321;SDS011;42227;6.376;-10.782;2022-10-31T13:46:55;23.25;;;9.82;;
56321;SDS011;42227;6.376;-10.782;2022-10-31T13:52:32;19.08;;;8.00;;
56321;SDS011;42227;6.376;-10.782;2022-10-31T13:54:53;14.75;;;7.32;;
56321;SDS011;42227;6.376;-10.782;2022-10-31T13:57:29;20.45;;;7.53;;
56321;SDS011;42227;6.376;-10.782;2022-10-31T14:02:44;11.88;;;6.35;;
56321;SDS011;42227;6.376;-10.782;2022-10-31T14:05:21;18.83;;;7.03;;
56321;SDS011;42227;6.376;-10.782;2022-10-31T14:07:51;22.40;;;7.28;;
56321;SDS011;42227;6.376;-10.782;2022-10-31T14:10:28;22.35;;;7.20;;
56321;SDS011;42227;6.376;-10.782;2022-10-31T14:13:28;13.90;;;6.82;;
56321;SDS011;42227;6.376;-10.782;2022-10-31T14:16:04;12.52;;;6.45;;
56321;SDS011;42227;6.376;-10.782;2022-10-31T14:18:44;15.88;;;7.82;;
56321;SDS011;42227;6.376;-10.782;2022-10-31T14:23:54;16.25;;;9.38;;
56321;SDS011;42227;6.376;-10.782;2022-10-31T14:31:37;7.47;;;4.85;;
56321;SDS011;42227;6.376;-10.782;2022-10-31T14:45:18;26.08;;;7.57;;
56321;SDS011;42227;6.376;-10.782;2022-10-31T14:53:22;11.77;;;6.07;;
56321;SDS011;42227;6.376;-10.782;2022-10-31T14:56:02;16.08;;;7.07;;
56321;SDS011;42227;6.376;-10.782;2022-10-31T14:58:39;21.55;;;7.18;;
56321;SDS011;42227;6.376;-10.782;2022-10-31T15:01:23;17.92;;;7.93;;
56321;SDS011;42227;6.376;-10.782;2022-10-31T15:04:02;23.80;;;6.03;;
56321;SDS011;42227;6.376;-10.782;2022-10-31T15:06:55;20.15;;;5.97;;
56321;SDS011;42227;6.376;-10.782;2022-10-31T15:09:33;12.07;;;5.75;;
56321;SDS011;42227;6.376;-10.782;2022-10-31T15:12:22;15.00;;;7.40;;
56321;SDS011;42227;6.376;-10.782;2022-10-31T15:14:56;18.92;;;7.05;;
56321;SDS011;42227;6.376;-10.782;2022-10-31T15:17:24;14.68;;;6.00;;
56321;SDS011;42227;6.376;-10.782;2022-10-31T15:19:53;16.73;;;6.82;;
56321;SDS011;42227;6.376;-10.782;2022-10-31T15:22:22;15.73;;;6.38;;
56321;SDS011;42227;6.376;-10.782;2022-10-31T15:24:51;15.27;;;7.30;;
56321;SDS011;42227;6.376;-10.782;2022-10-31T15:27:20;21.73;;;8.98;;
56321;SDS011;42227;6.376;-10.782;2022-10-31T15:29:58;17.13;;;7.82;;
56321;SDS011;42227;6.376;-10.782;2022-10-31T15:32:27;33.08;;;9.52;;
56321;SDS011;42227;6.376;-10.782;2022-10-31T15:34:56;53.83;;;33.20;;
56321;SDS011;42227;6.376;-10.782;2022-10-31T15:37:25;24.27;;;11.05;;
56321;SDS011;42227;6.376;-10.782;2022-10-31T15:39:54;14.10;;;7.93;;
56321;SDS011;42227;6.376;-10.782;2022-10-31T15:45:05;16.80;;;8.35;;
56321;SDS011;42227;6.376;-10.782;2022-10-31T15:47:36;12.60;;;6.70;;
56321;SDS011;42227;6.376;-10.782;2022-10-31T15:50:06;25.85;;;7.35;;
56321;SDS011;42227;6.376;-10.782;2022-10-31T15:52:48;18.05;;;9.07;;
56321;SDS011;42227;6.376;-10.782;2022-10-31T16:03:28;26.15;;;10.20;;
56321;SDS011;42227;6.376;-10.782;2022-10-31T16:06:02;9.98;;;7.20;;
56321;SDS011;42227;6.376;-10.782;2022-10-31T16:09:56;30.98;;;9.07;;
56321;SDS011;42227;6.376;-10.782;2022-10-31T16:12:36;14.20;;;7.90;;
56321;SDS011;42227;6.376;-10.782;2022-10-31T16:15:16;21.10;;;10.00;;
56321;SDS011;42227;6.376;-10.782;2022-10-31T16:17:47;15.38;;;7.38;;
56321;SDS011;42227;6.376;-10.782;2022-10-31T16:20:19;17.92;;;7.88;;
56321;SDS011;42227;6.376;-10.782;2022-10-31T16:25:35;23.05;;;6.85;;
56321;SDS011;42227;6.376;-10.782;2022-10-31T16:28:06;16.95;;;7.55;;
56321;SDS011;42227;6.376;-10.782;2022-10-31T16:30:53;24.80;;;10.02;;
56321;SDS011;42227;6.376;-10.782;2022-10-31T16:35:51;21.55;;;6.60;;
56321;SDS011;42227;6.376;-10.782;2022-10-31T16:38:35;18.33;;;7.15;;
56321;SDS011;42227;6.376;-10.782;2022-10-31T16:41:03;19.40;;;6.28;;
56321;SDS011;42227;6.376;-10.782;2022-10-31T16:43:32;15.73;;;7.88;;
56321;SDS011;42227;6.376;-10.782;2022-10-31T16:46:02;19.33;;;7.80;;
56321;SDS011;42227;6.376;-10.782;2022-10-31T16:48:30;14.63;;;6.70;;
56321;SDS011;42227;6.376;-10.782;2022-10-31T16:50:59;18.77;;;8.82;;
56321;SDS011;42227;6.376;-10.782;2022-10-31T16:53:27;20.63;;;9.07;;
56321;SDS011;42227;6.376;-10.782;2022-10-31T16:55:56;24.73;;;8.70;;
56321;SDS011;42227;6.376;-10.782;2022-10-31T16:58:32;14.73;;;7.00;;
56321;SDS011;42227;6.376;-10.782;2022-10-31T17:01:04;29.42;;;8.65;;
56321;SDS011;42227;6.376;-10.782;2022-10-31T17:03:34;19.92;;;7.65;;
56321;SDS011;42227;6.376;-10.782;2022-10-31T17:06:02;15.30;;;7.07;;
56321;SDS011;42227;6.376;-10.782;2022-10-31T17:08:31;21.90;;;5.72;;
56321;SDS011;42227;6.376;-10.782;2022-10-31T17:10:59;28.30;;;5.80;;
56321;SDS011;42227;6.376;-10.782;2022-10-31T17:13:28;21.67;;;7.13;;
56321;SDS011;42227;6.376;-10.782;2022-10-31T17:15:59;16.07;;;8.50;;
56321;SDS011;42227;6.376;-10.782;2022-10-31T17:18:29;21.95;;;6.88;;
56321;SDS011;42227;6.376;-10.782;2022-10-31T17:20:58;13.93;;;7.50;;
56321;SDS011;42227;6.376;-10.782;2022-10-31T17:23:28;17.45;;;7.55;;
56321;SDS011;42227;6.376;-10.782;2022-10-31T17:25:56;27.63;;;7.60;;
56321;SDS011;42227;6.376;-10.782;2022-10-31T17:28:27;16.33;;;7.28;;
56321;SDS011;42227;6.376;-10.782;2022-10-31T17:30:55;30.60;;;8.77;;
56321;SDS011;42227;6.376;-10.782;2022-10-31T17:33:23;23.27;;;8.05;;
56321;SDS011;42227;6.376;-10.782;2022-10-31T17:35:51;15.63;;;8.27;;
56321;SDS011;42227;6.376;-10.782;2022-10-31T17:38:20;12.57;;;7.43;;
56321;SDS011;42227;6.376;-10.782;2022-10-31T17:40:48;13.98;;;7.78;;
56321;SDS011;42227;6.376;-10.782;2022-10-31T17:43:17;26.40;;;8.05;;
56321;SDS011;42227;6.376;-10.782;2022-10-31T17:45:45;25.85;;;7.10;;
56321;SDS011;42227;6.376;-10.782;2022-10-31T17:48:13;14.40;;;7.40;;
56321;SDS011;42227;6.376;-10.782;2022-10-31T17:50:41;25.30;;;9.63;;
56321;SDS011;42227;6.376;-10.782;2022-10-31T17:53:09;20.40;;;8.55;;
56321;SDS011;42227;6.376;-10.782;2022-10-31T17:55:37;22.33;;;9.07;;
56321;SDS011;42227;6.376;-10.782;2022-10-31T17:58:05;25.85;;;9.70;;
56321;SDS011;42227;6.376;-10.782;2022-10-31T18:00:34;22.45;;;8.23;;
56321;SDS011;42227;6.376;-10.782;2022-10-31T18:03:02;25.60;;;7.60;;
56321;SDS011;42227;6.376;-10.782;2022-10-31T18:05:31;10.20;;;6.63;;
56321;SDS011;42227;6.376;-10.782;2022-10-31T18:08:00;26.83;;;8.05;;
56321;SDS011;42227;6.376;-10.782;2022-10-31T18:10:30;19.13;;;8.55;;
56321;SDS011;42227;6.376;-10.782;2022-10-31T18:12:58;26.38;;;8.20;;
56321;SDS011;42227;6.376;-10.782;2022-10-31T18:15:27;20.00;;;7.45;;
56321;SDS011;42227;6.376;-10.782;2022-10-31T18:17:55;36.30;;;27.55;;
56321;SDS011;42227;6.376;-10.782;2022-10-31T18:20:24;26.55;;;16.80;;
56321;SDS011;42227;6.376;-10.782;2022-10-31T18:22:52;29.17;;;14.35;;